createdAt,value
2022-08-31T00:00:33.401Z,102401.25
2022-08-31T00:03:19.629Z,102398.94
2022-08-31T00:05:50.230Z,102403.22
2022-08-31T00:08:18.594Z,102402.81
2022-08-31T00:10:47.908Z,102402.22
2022-08-31T00:13:18.226Z,102405.72
2022-08-31T00:15:46.905Z,102403.09
2022-08-31T00:18:16.262Z,102405.31
2022-08-31T00:20:45.560Z,102396.97
2022-08-31T00:23:17.397Z,102401.84
2022-08-31T00:25:49.971Z,102402.25
2022-08-31T00:28:20.641Z,102397.78
2022-08-31T00:30:49.773Z,102393.75
2022-08-31T00:33:18.461Z,102398.88
2022-08-31T00:35:47.079Z,102394.50
2022-08-31T00:38:15.933Z,102395.16
2022-08-31T00:40:46.706Z,102398.66
2022-08-31T00:43:40.504Z,102399.81
2022-08-31T00:46:11.384Z,102398.97
2022-08-31T00:48:45.846Z,102393.44
2022-08-31T00:51:18.705Z,102398.38
2022-08-31T00:53:48.074Z,102398.56
2022-08-31T00:56:20.876Z,102393.94
2022-08-31T00:58:54.848Z,102397.31
2022-08-31T01:01:24.145Z,102402.34
2022-08-31T01:03:52.700Z,102403.47
2022-08-31T01:06:21.661Z,102402.69
2022-08-31T01:08:51.338Z,102407.44
2022-08-31T01:11:20.823Z,102407.09
2022-08-31T01:13:50.751Z,102409.31
2022-08-31T01:16:25.392Z,102400.53
2022-08-31T01:18:56.823Z,102412.88
2022-08-31T01:21:30.137Z,102402.78
2022-08-31T01:24:02.881Z,102413.78
2022-08-31T01:26:33.395Z,102405.34
2022-08-31T01:29:06.667Z,102411.31
2022-08-31T01:31:39.877Z,102405.72
2022-08-31T01:34:08.472Z,102406.19
2022-08-31T01:36:39.658Z,102404.16
2022-08-31T01:39:11.056Z,102414.00
2022-08-31T01:41:43.351Z,102414.50
2022-08-31T01:44:14.814Z,102416.25
2022-08-31T01:46:44.563Z,102412.66
2022-08-31T01:49:13.600Z,102418.06
2022-08-31T01:51:42.545Z,102418.38
2022-08-31T01:54:12.777Z,102409.75
2022-08-31T01:56:46.174Z,102408.75
2022-08-31T01:59:17.125Z,102416.97
2022-08-31T02:01:48.628Z,102416.28
2022-08-31T02:04:22.045Z,102422.03
2022-08-31T02:06:53.519Z,102415.91
2022-08-31T02:09:23.651Z,102409.63
2022-08-31T02:11:52.836Z,102418.50
2022-08-31T02:14:22.054Z,102423.94
2022-08-31T02:16:50.925Z,102419.94
2022-08-31T02:19:21.274Z,102424.28
2022-08-31T02:21:49.726Z,102429.31
2022-08-31T02:24:18.119Z,102415.06
2022-08-31T02:26:53.175Z,102418.34
2022-08-31T02:29:22.729Z,102421.13
2022-08-31T02:31:51.833Z,102416.84
2022-08-31T02:34:20.615Z,102416.25
2022-08-31T02:36:48.850Z,102425.66
2022-08-31T02:39:17.811Z,102415.03
2022-08-31T02:41:48.381Z,102419.16
2022-08-31T02:44:16.767Z,102422.44
2022-08-31T02:46:45.234Z,102408.63
2022-08-31T02:49:13.677Z,102417.69
2022-08-31T02:51:42.766Z,102404.34
2022-08-31T02:54:12.373Z,102419.97
2022-08-31T02:56:40.918Z,102411.88
2022-08-31T02:59:11.161Z,102413.41
2022-08-31T03:01:40.895Z,102407.84
2022-08-31T03:04:09.460Z,102418.75
2022-08-31T03:06:38.062Z,102421.94
2022-08-31T03:09:06.664Z,102424.75
2022-08-31T03:11:34.977Z,102423.22
2022-08-31T03:14:03.210Z,102414.56
2022-08-31T03:16:32.907Z,102407.69
2022-08-31T03:19:01.085Z,102408.63
2022-08-31T03:21:29.811Z,102413.63
2022-08-31T03:23:58.572Z,102403.84
2022-08-31T03:26:26.851Z,102403.59
2022-08-31T03:28:55.866Z,102416.72
2022-08-31T03:31:24.923Z,102403.13
2022-08-31T03:33:55.367Z,102406.69
2022-08-31T03:36:23.570Z,102408.00
2022-08-31T03:38:51.872Z,102405.38
2022-08-31T03:41:24.800Z,102406.59
2022-08-31T03:43:53.632Z,102416.88
2022-08-31T03:46:22.409Z,102416.53
2022-08-31T03:48:50.648Z,102413.84
2022-08-31T03:51:20.307Z,102421.75
2022-08-31T03:53:48.606Z,102428.78
2022-08-31T03:56:16.970Z,102422.78
2022-08-31T03:58:45.375Z,102428.81
2022-08-31T04:01:14.987Z,102431.50
2022-08-31T04:03:43.853Z,102432.53
2022-08-31T04:06:13.931Z,102435.03
2022-08-31T04:08:43.751Z,102429.47
2022-08-31T04:11:16.198Z,102431.09
2022-08-31T04:13:45.153Z,102425.38
2022-08-31T04:16:16.040Z,102435.53
2022-08-31T04:18:46.545Z,102429.34
2022-08-31T04:21:17.686Z,102431.56
2022-08-31T04:23:47.480Z,102437.19
2022-08-31T04:26:20.919Z,102441.59
2022-08-31T04:28:49.810Z,102432.38
2022-08-31T04:31:19.346Z,102439.06
2022-08-31T04:33:48.207Z,102442.84
2022-08-31T04:36:20.472Z,102438.25
2022-08-31T04:38:54.878Z,102442.53
2022-08-31T04:41:26.313Z,102438.25
2022-08-31T04:43:57.244Z,102439.25
2022-08-31T04:46:25.976Z,102447.13
2022-08-31T04:48:54.496Z,102448.84
2022-08-31T04:51:25.852Z,102440.59
2022-08-31T04:53:56.527Z,102452.16
2022-08-31T04:56:27.578Z,102453.34
2022-08-31T04:58:58.854Z,102451.59
2022-08-31T05:01:36.119Z,102462.09
2022-08-31T05:04:13.737Z,102461.94
2022-08-31T05:06:45.823Z,102465.81
2022-08-31T05:09:19.696Z,102461.81
2022-08-31T05:11:49.968Z,102466.22
2022-08-31T05:14:18.392Z,102463.34
2022-08-31T05:16:46.675Z,102469.84
2022-08-31T05:19:15.460Z,102469.28
2022-08-31T05:21:45.398Z,102478.22
2022-08-31T05:24:18.438Z,102472.72
2022-08-31T05:26:51.862Z,102474.91
2022-08-31T05:29:23.680Z,102479.41
2022-08-31T05:31:52.917Z,102483.63
2022-08-31T05:34:22.365Z,102477.00
2022-08-31T05:36:53.726Z,102493.28
2022-08-31T05:39:24.062Z,102474.31
2022-08-31T05:41:53.185Z,102490.09
2022-08-31T05:44:22.867Z,102484.69
2022-08-31T05:47:03.515Z,102486.19
2022-08-31T05:49:32.642Z,102486.22
2022-08-31T05:52:01.710Z,102480.31
2022-08-31T05:54:31.406Z,102488.78
2022-08-31T05:57:01.159Z,102479.16
2022-08-31T05:59:30.905Z,102486.63
2022-08-31T06:01:59.950Z,102481.78
2022-08-31T06:04:31.143Z,102481.94
2022-08-31T06:06:59.434Z,102475.50
2022-08-31T06:09:31.574Z,102487.00
2022-08-31T06:11:59.951Z,102486.63
2022-08-31T06:14:28.127Z,102484.81
2022-08-31T06:16:56.744Z,102485.69
2022-08-31T06:19:25.776Z,102484.66
2022-08-31T06:21:54.104Z,102487.63
2022-08-31T06:24:22.571Z,102488.53
2022-08-31T06:26:58.004Z,102487.97
2022-08-31T06:29:31.493Z,102487.28
2022-08-31T06:32:10.978Z,102484.25
2022-08-31T06:34:43.594Z,102491.34
2022-08-31T06:37:18.890Z,102474.09
2022-08-31T06:39:47.941Z,102487.75
2022-08-31T06:42:17.895Z,102484.16
2022-08-31T06:44:46.418Z,102485.75
2022-08-31T06:47:15.489Z,102490.19
2022-08-31T06:49:43.969Z,102481.47
2022-08-31T06:52:12.516Z,102486.50
2022-08-31T06:54:40.703Z,102488.81
2022-08-31T06:57:08.954Z,102477.81
2022-08-31T06:59:38.699Z,102480.22
2022-08-31T07:02:07.080Z,102497.16
2022-08-31T07:04:37.328Z,102478.53
2022-08-31T07:07:09.080Z,102487.88
2022-08-31T07:09:37.306Z,102488.44
2022-08-31T07:12:06.643Z,102490.34
2022-08-31T07:14:35.659Z,102487.94
2022-08-31T07:17:05.653Z,102498.56
2022-08-31T07:19:34.026Z,102501.97
2022-08-31T07:22:06.059Z,102491.19
2022-08-31T07:24:35.500Z,102492.66
2022-08-31T07:27:09.993Z,102501.41
2022-08-31T07:29:41.317Z,102504.91
2022-08-31T07:32:13.774Z,102500.53
2022-08-31T07:34:44.044Z,102491.97
2022-08-31T07:37:30.313Z,102502.28
2022-08-31T07:40:16.385Z,102505.00
2022-08-31T07:42:46.804Z,102493.50
2022-08-31T07:45:22.592Z,102495.91
2022-08-31T07:47:55.129Z,102494.91
2022-08-31T07:50:23.980Z,102504.38
2022-08-31T07:52:55.585Z,102491.78
2022-08-31T07:55:26.251Z,102502.44
2022-08-31T07:57:56.446Z,102495.66
2022-08-31T08:00:28.081Z,102506.31
2022-08-31T08:03:01.554Z,102509.25
2022-08-31T08:05:31.879Z,102510.13
2022-08-31T08:08:09.416Z,102503.44
2022-08-31T08:10:42.768Z,102513.50
2022-08-31T08:13:12.570Z,102499.88
2022-08-31T08:15:41.202Z,102511.94
2022-08-31T08:18:13.352Z,102523.06
2022-08-31T08:20:42.066Z,102503.94
2022-08-31T08:23:28.641Z,102506.66
2022-08-31T08:26:01.587Z,102508.16
2022-08-31T08:28:40.196Z,102530.25
2022-08-31T08:31:15.005Z,102504.25
2022-08-31T08:33:45.456Z,102494.50
2022-08-31T08:36:18.336Z,102518.53
2022-08-31T08:38:50.456Z,102511.88
2022-08-31T08:41:21.704Z,102519.78
2022-08-31T08:43:53.165Z,102511.75
2022-08-31T08:46:35.071Z,102505.03
2022-08-31T08:49:19.778Z,102507.31
2022-08-31T08:51:54.454Z,102510.78
2022-08-31T08:54:31.845Z,102511.66
2022-08-31T08:57:01.491Z,102514.47
2022-08-31T08:59:30.523Z,102512.47
2022-08-31T09:02:04.995Z,102509.38
2022-08-31T09:05:09.502Z,102508.97
2022-08-31T09:07:56.235Z,102515.09
2022-08-31T09:10:33.378Z,102504.22
2022-08-31T09:13:22.369Z,102498.19
2022-08-31T09:16:12.778Z,102501.13
2022-08-31T09:18:49.704Z,102513.53
2022-08-31T09:21:25.249Z,102498.44
2022-08-31T09:24:02.375Z,102495.47
2022-08-31T09:26:33.782Z,102508.63
2022-08-31T09:29:03.745Z,102493.00
2022-08-31T09:31:39.778Z,102499.94
2022-08-31T09:34:28.464Z,102491.53
2022-08-31T09:37:16.337Z,102490.41
2022-08-31T09:39:48.437Z,102489.66
2022-08-31T09:42:30.890Z,102500.22
2022-08-31T09:45:02.758Z,102503.41
2022-08-31T09:47:48.407Z,102497.25
2022-08-31T09:50:31.624Z,102496.16
2022-08-31T09:53:36.562Z,102501.75
2022-08-31T09:56:17.473Z,102500.13
2022-08-31T09:58:50.742Z,102481.03
2022-08-31T10:01:30.102Z,102484.00
2022-08-31T10:04:20.447Z,102483.81
2022-08-31T10:06:56.488Z,102481.88
2022-08-31T10:09:37.111Z,102481.22
2022-08-31T10:12:12.565Z,102489.69
2022-08-31T10:14:51.793Z,102490.88
2022-08-31T10:17:32.036Z,102485.59
2022-08-31T10:20:08.150Z,102505.75
2022-08-31T10:22:42.057Z,102487.69
2022-08-31T10:25:22.374Z,102483.22
2022-08-31T10:27:59.706Z,102497.25
2022-08-31T10:30:41.736Z,102487.44
2022-08-31T10:33:17.720Z,102490.81
2022-08-31T10:35:55.734Z,102480.03
2022-08-31T10:38:35.755Z,102487.13
2022-08-31T10:41:15.101Z,102483.59
2022-08-31T10:43:53.485Z,102472.84
2022-08-31T10:46:21.890Z,102470.72
2022-08-31T10:48:54.277Z,102467.78
2022-08-31T10:51:31.353Z,102470.81
2022-08-31T10:54:24.585Z,102473.69
2022-08-31T10:57:09.349Z,102461.38
2022-08-31T10:59:56.154Z,102467.63
2022-08-31T11:02:42.207Z,102477.28
2022-08-31T11:05:36.160Z,102467.63
2022-08-31T11:08:28.890Z,102469.53
2022-08-31T11:10:59.448Z,102480.28
2022-08-31T11:14:00.367Z,102463.34
2022-08-31T11:16:57.033Z,102460.94
2022-08-31T11:20:00.057Z,102466.97
2022-08-31T11:23:42.195Z,102471.44
2022-08-31T11:26:52.865Z,102461.66
2022-08-31T11:29:41.463Z,102465.53
2022-08-31T11:32:21.041Z,102463.69
2022-08-31T11:34:53.461Z,102451.81
2022-08-31T11:37:52.488Z,102448.47
2022-08-31T11:41:03.606Z,102456.16
2022-08-31T11:43:52.161Z,102454.94
2022-08-31T11:47:06.934Z,102454.84
2022-08-31T11:49:47.802Z,102447.59
2022-08-31T11:55:35.171Z,102449.50
2022-08-31T12:01:43.076Z,102431.09
2022-08-31T12:05:05.676Z,102443.16
2022-08-31T12:07:43.708Z,102429.84
2022-08-31T12:10:35.010Z,102431.38
2022-08-31T12:13:30.849Z,102419.03
2022-08-31T12:16:11.998Z,102428.94
2022-08-31T12:18:58.912Z,102430.75
2022-08-31T12:21:59.389Z,102417.19
2022-08-31T12:24:39.608Z,102423.78
2022-08-31T12:27:33.272Z,102413.22
2022-08-31T12:30:22.750Z,102420.50
2022-08-31T12:33:00.200Z,102411.03
2022-08-31T12:35:32.192Z,102403.81
2022-08-31T12:38:04.731Z,102408.53
2022-08-31T12:40:35.912Z,102398.00
2022-08-31T12:43:17.302Z,102394.72
2022-08-31T12:46:40.224Z,102404.34
2022-08-31T12:49:39.975Z,102392.03
2022-08-31T12:52:24.380Z,102402.94
2022-08-31T12:55:10.048Z,102396.13
2022-08-31T12:58:05.851Z,102386.69
2022-08-31T13:00:37.325Z,102384.53
2022-08-31T13:03:20.966Z,102377.03
2022-08-31T13:06:08.307Z,102373.75
2022-08-31T13:08:41.180Z,102377.03
2022-08-31T13:11:25.697Z,102379.75
2022-08-31T13:14:18.656Z,102375.81
2022-08-31T13:16:50.381Z,102368.94
2022-08-31T13:19:26.846Z,102365.78
2022-08-31T13:21:59.998Z,102369.97
2022-08-31T13:24:32.860Z,102356.16
2022-08-31T13:27:20.326Z,102364.28
2022-08-31T13:29:51.225Z,102371.56
2022-08-31T13:32:33.363Z,102361.53
2022-08-31T13:35:04.877Z,102348.81
2022-08-31T13:37:40.035Z,102357.75
2022-08-31T13:40:13.611Z,102348.81
2022-08-31T13:42:46.793Z,102358.44
2022-08-31T13:45:29.130Z,102352.34
2022-08-31T13:48:01.530Z,102345.00
2022-08-31T13:50:35.305Z,102338.44
2022-08-31T13:56:01.307Z,102333.91
2022-08-31T13:58:33.518Z,102342.00
2022-08-31T14:01:24.975Z,102334.81
2022-08-31T14:03:58.964Z,102334.09
2022-08-31T14:06:34.999Z,102333.16
2022-08-31T14:09:17.099Z,102330.69
2022-08-31T14:11:53.318Z,102324.41
2022-08-31T14:14:36.254Z,102313.38
2022-08-31T14:17:09.706Z,102323.94
2022-08-31T14:19:39.219Z,102324.56
2022-08-31T14:22:28.403Z,102322.78
2022-08-31T14:24:56.830Z,102327.16
2022-08-31T14:27:27.013Z,102322.31
2022-08-31T14:29:58.318Z,102322.00
2022-08-31T14:32:29.356Z,102322.56
2022-08-31T14:34:59.054Z,102328.41
2022-08-31T14:37:30.155Z,102312.38
2022-08-31T14:40:07.034Z,102305.50
2022-08-31T14:42:39.136Z,102305.22
2022-08-31T14:45:18.771Z,102297.97
2022-08-31T14:47:52.179Z,102298.38
2022-08-31T14:50:27.058Z,102306.34
2022-08-31T14:52:57.652Z,102307.97
2022-08-31T14:55:30.241Z,102301.25
2022-08-31T14:58:05.256Z,102300.28
2022-08-31T15:00:36.542Z,102292.44
2022-08-31T15:03:08.284Z,102294.13
2022-08-31T15:05:39.247Z,102297.78
2022-08-31T15:08:08.679Z,102291.31
2022-08-31T15:10:38.140Z,102283.03
2022-08-31T15:13:16.124Z,102293.16
2022-08-31T15:15:47.678Z,102290.63
2022-08-31T15:18:16.643Z,102288.03
2022-08-31T15:20:46.500Z,102290.78
2022-08-31T15:23:22.718Z,102286.50
2022-08-31T15:25:51.739Z,102287.63
2022-08-31T15:28:20.400Z,102281.81
2022-08-31T15:30:51.023Z,102291.50
2022-08-31T15:33:21.590Z,102281.63
2022-08-31T15:35:49.851Z,102295.84
2022-08-31T15:38:18.505Z,102288.34
2022-08-31T15:40:46.828Z,102284.38
2022-08-31T15:43:15.844Z,102282.78
2022-08-31T15:45:44.635Z,102284.31
2022-08-31T15:48:31.891Z,102283.00
2022-08-31T15:51:01.248Z,102279.50
2022-08-31T15:53:30.929Z,102272.16
2022-08-31T15:56:05.602Z,102266.97
2022-08-31T15:58:34.900Z,102270.44
2022-08-31T16:01:05.324Z,102265.47
2022-08-31T16:03:35.779Z,102270.66
2022-08-31T16:06:13.520Z,102260.44
2022-08-31T16:08:42.588Z,102269.25
2022-08-31T16:11:13.423Z,102268.16
2022-08-31T16:13:49.914Z,102264.28
2022-08-31T16:16:20.354Z,102262.28
2022-08-31T16:18:52.745Z,102269.69
2022-08-31T16:21:22.091Z,102266.84
2022-08-31T16:23:59.505Z,102271.53
2022-08-31T16:26:31.313Z,102268.13
2022-08-31T16:29:01.621Z,102267.97
2022-08-31T16:31:31.601Z,102271.38
2022-08-31T16:34:01.253Z,102269.44
2022-08-31T16:36:38.002Z,102268.66
2022-08-31T16:39:06.462Z,102259.84
2022-08-31T16:41:36.069Z,102263.88
2022-08-31T16:44:21.605Z,102265.41
2022-08-31T16:46:53.431Z,102261.25
2022-08-31T16:49:34.213Z,102272.41
2022-08-31T16:52:03.979Z,102267.50
2022-08-31T16:54:41.363Z,102260.25
2022-08-31T16:57:10.794Z,102271.56
2022-08-31T16:59:41.848Z,102271.91
2022-08-31T17:02:13.972Z,102265.63
2022-08-31T17:04:52.560Z,102268.56
2022-08-31T17:07:28.933Z,102269.25
2022-08-31T17:10:07.282Z,102272.72
2022-08-31T17:12:42.029Z,102269.00
2022-08-31T17:15:13.887Z,102282.94
2022-08-31T17:17:46.233Z,102282.19
2022-08-31T17:20:16.767Z,102281.34
2022-08-31T17:22:48.602Z,102280.47
2022-08-31T17:25:17.794Z,102283.91
2022-08-31T17:27:46.046Z,102279.84
2022-08-31T17:30:19.903Z,102279.41
2022-08-31T17:32:56.051Z,102285.47
2022-08-31T17:35:25.904Z,102279.81
2022-08-31T17:37:55.501Z,102281.28
2022-08-31T17:40:23.921Z,102288.78
2022-08-31T17:42:55.004Z,102286.41
2022-08-31T17:45:28.310Z,102293.41
2022-08-31T17:47:56.681Z,102291.91
2022-08-31T17:50:26.620Z,102291.75
2022-08-31T17:52:55.571Z,102298.34
2022-08-31T17:55:38.422Z,102293.38
2022-08-31T17:58:15.599Z,102285.84
2022-08-31T18:00:54.680Z,102289.25
2022-08-31T18:03:25.763Z,102290.59
2022-08-31T18:06:00.613Z,102297.88
2022-08-31T18:08:29.184Z,102295.00
2022-08-31T18:10:57.476Z,102298.34
2022-08-31T18:13:33.370Z,102299.94
2022-08-31T18:16:03.244Z,102299.72
2022-08-31T18:18:31.889Z,102300.72
2022-08-31T18:21:05.518Z,102302.44
2022-08-31T18:23:40.062Z,102310.88
2022-08-31T18:26:23.366Z,102320.19
2022-08-31T18:28:53.188Z,102322.69
2022-08-31T18:31:32.459Z,102323.31
2022-08-31T18:34:03.963Z,102323.13
2022-08-31T18:36:38.776Z,102325.69
2022-08-31T18:39:13.739Z,102331.38
2022-08-31T18:42:03.507Z,102327.88
2022-08-31T18:44:50.894Z,102328.78
2022-08-31T18:47:21.152Z,102333.19
2022-08-31T18:49:50.765Z,102341.38
2022-08-31T18:52:22.750Z,102342.91
2022-08-31T18:54:52.705Z,102348.91
2022-08-31T18:57:23.804Z,102362.13
2022-08-31T18:59:53.399Z,102356.59
2022-08-31T19:02:23.113Z,102363.28
2022-08-31T19:04:52.789Z,102360.84
2022-08-31T19:07:23.043Z,102362.53
2022-08-31T19:09:55.059Z,102358.19
2022-08-31T19:12:24.643Z,102366.06
2022-08-31T19:14:55.428Z,102362.41
2022-08-31T19:17:24.331Z,102367.69
2022-08-31T19:19:56.438Z,102365.97
2022-08-31T19:22:26.213Z,102373.81
2022-08-31T19:24:54.602Z,102374.47
2022-08-31T19:27:23.559Z,102381.00
2022-08-31T19:29:55.722Z,102385.50
2022-08-31T19:32:24.075Z,102383.22
2022-08-31T19:34:52.424Z,102383.53
2022-08-31T19:37:21.271Z,102389.84
2022-08-31T19:39:51.008Z,102379.09
2022-08-31T19:42:19.871Z,102373.53
2022-08-31T19:45:22.494Z,102379.28
2022-08-31T19:47:38.891Z,102377.09
2022-08-31T19:50:13.741Z,102369.31
2022-08-31T19:52:43.271Z,102379.94
2022-08-31T19:55:14.172Z,102387.47
2022-08-31T19:57:43.408Z,102377.78
2022-08-31T20:00:15.396Z,102387.13
2022-08-31T20:02:44.865Z,102389.25
2022-08-31T20:05:15.290Z,102391.03
2022-08-31T20:07:45.319Z,102393.97
2022-08-31T20:10:15.520Z,102396.91
2022-08-31T20:12:44.827Z,102398.09
2022-08-31T20:15:15.433Z,102411.19
2022-08-31T20:17:43.744Z,102417.09
2022-08-31T20:20:13.482Z,102410.28
2022-08-31T20:22:41.877Z,102412.84
2022-08-31T20:25:18.849Z,102413.38
2022-08-31T20:27:50.635Z,102411.03
2022-08-31T20:30:19.421Z,102416.41
2022-08-31T20:32:47.768Z,102421.28
2022-08-31T20:35:16.345Z,102412.41
2022-08-31T20:37:44.765Z,102405.25
2022-08-31T20:40:17.191Z,102405.19
2022-08-31T20:42:45.801Z,102411.97
2022-08-31T20:45:15.765Z,102413.13
2022-08-31T20:48:02.362Z,102412.75
2022-08-31T20:50:30.839Z,102405.63
2022-08-31T20:52:59.173Z,102410.41
2022-08-31T20:55:29.801Z,102416.78
2022-08-31T20:57:58.511Z,102410.09
2022-08-31T21:00:29.944Z,102403.88
2022-08-31T21:03:00.270Z,102411.69
2022-08-31T21:05:38.676Z,102402.69
2022-08-31T21:08:07.703Z,102408.50
2022-08-31T21:10:40.066Z,102412.63
2022-08-31T21:13:12.711Z,102415.63
2022-08-31T21:15:46.132Z,102405.06
2022-08-31T21:18:17.283Z,102417.75
2022-08-31T21:20:46.478Z,102417.94
2022-08-31T21:23:15.141Z,102413.59
2022-08-31T21:25:45.717Z,102419.31
2022-08-31T21:28:17.064Z,102408.06
2022-08-31T21:30:50.081Z,102408.47
2022-08-31T21:33:23.494Z,102410.59
2022-08-31T21:36:02.054Z,102423.66
2022-08-31T21:38:32.057Z,102426.25
2022-08-31T21:41:00.958Z,102431.22
2022-08-31T21:43:29.333Z,102425.09
2022-08-31T21:46:08.398Z,102429.06
2022-08-31T21:48:40.054Z,102429.53
2022-08-31T21:51:14.458Z,102431.19
2022-08-31T21:53:45.830Z,102421.59
2022-08-31T21:56:14.406Z,102428.31
2022-08-31T21:58:42.873Z,102424.31
2022-08-31T22:01:18.062Z,102414.81
2022-08-31T22:03:47.022Z,102424.16
2022-08-31T22:06:22.011Z,102420.16
2022-08-31T22:09:00.194Z,102419.19
2022-08-31T22:11:32.080Z,102414.63
2022-08-31T22:14:02.640Z,102411.91
2022-08-31T22:16:32.572Z,102417.41
2022-08-31T22:19:02.301Z,102407.84
2022-08-31T22:21:34.657Z,102424.16
2022-08-31T22:24:09.245Z,102419.91
2022-08-31T22:26:42.768Z,102415.78
2022-08-31T22:29:15.181Z,102419.53
2022-08-31T22:31:44.886Z,102412.19
2022-08-31T22:34:13.782Z,102407.53
2022-08-31T22:36:45.398Z,102415.84
2022-08-31T22:39:22.654Z,102419.13
2022-08-31T22:41:51.779Z,102424.09
2022-08-31T22:44:23.045Z,102420.41
2022-08-31T22:46:53.694Z,102419.91
2022-08-31T22:49:22.139Z,102422.84
2022-08-31T22:51:50.423Z,102420.28
2022-08-31T22:54:21.494Z,102412.81
2022-08-31T22:56:50.670Z,102423.69
2022-08-31T22:59:26.949Z,102421.06
2022-08-31T23:02:00.588Z,102421.19
2022-08-31T23:04:33.221Z,102407.16
2022-08-31T23:07:04.168Z,102410.69
2022-08-31T23:09:34.299Z,102403.56
2022-08-31T23:12:05.927Z,102406.56
2022-08-31T23:14:34.635Z,102407.53
2022-08-31T23:17:08.905Z,102409.03
2022-08-31T23:19:41.036Z,102409.47
2022-08-31T23:22:12.394Z,102398.59
2022-08-31T23:24:46.874Z,102408.28
2022-08-31T23:27:19.333Z,102406.13
2022-08-31T23:29:51.678Z,102402.34
2022-08-31T23:32:26.231Z,102397.88
2022-08-31T23:34:56.495Z,102396.97
2022-08-31T23:37:26.021Z,102393.28
2022-08-31T23:39:56.482Z,102396.50
2022-08-31T23:42:27.785Z,102397.78
2022-08-31T23:44:57.447Z,102383.53
2022-08-31T23:47:31.796Z,102381.50
2022-08-31T23:50:04.682Z,102387.97
2022-08-31T23:52:41.375Z,102380.78
2022-08-31T23:55:13.041Z,102379.44
2022-08-31T23:57:41.813Z,102385.41
